Niledutch Osprey — V7AP5 — position and weather

sailwx.info

Track history (hours):
 
Tides and Currents Weather Stations Pressure Air Temp Water Temp Dewpoint Dewpoint Depression Visibility Wind Speed Wind Dir Waves Ship Positions

Niledutch Osprey

Last reported at 2017-Oct-16 01:27 UTC. Time now 2017-Oct-17 13:05 UTC.
Position N 36°01' W 005°09'.

Length 182 m; draft 10.2 m.

Type: Ship (hazmat cat A). MMSI: 538005042.

Date/timePositionNaut miles runAvg speedWind from/ knotsBaromVisibWave heightAir tempDewpointWater temp
2017-Oct-16 01:27N 36°01' W 005°09'716.3
2017-Oct-16 01:00N 36°01' W 005°18'714.5
2017-Oct-16 00:31N 36°06' W 005°25'2 3.0
2017-Oct-15 23:59N 36°08' W 005°25'0 0.0
2017-Oct-15 23:29N 36°08' W 005°25'0 0.0
2017-Oct-15 22:56N 36°08' W 005°25'0 0.0
2017-Oct-15 22:28N 36°08' W 005°25'0 0.0
2017-Oct-15 21:58N 36°08' W 005°25'0 0.0
2017-Oct-15 21:28N 36°08' W 005°25'0 0.0
2017-Oct-15 21:00N 36°08' W 005°25'0 0.0
2017-Oct-15 20:30N 36°08' W 005°25'0 0.0
2017-Oct-15 19:59N 36°08' W 005°25'0 0.0
2017-Oct-15 19:30N 36°08' W 005°25'0 0.0
2017-Oct-15 17:55N 36°08' W 005°25'0 0.0
2017-Oct-15 17:29N 36°08' W 005°25'0 0.0
2017-Oct-15 16:09N 36°08' W 005°25'0 0.1
2017-Oct-15 16:00N 36°08' W 005°25'0 0.0
2017-Oct-15 15:30N 36°08' W 005°25'0 0.0
2017-Oct-15 14:58N 36°08' W 005°25'0 0.0
2017-Oct-15 13:57N 36°08' W 005°25'0 0.0
2017-Oct-15 13:27N 36°08' W 005°25'0 0.4
2017-Oct-15 13:00N 36°08' W 005°25'4 4.1
2017-Oct-15 12:05N 36°05' W 005°23'0 0.6
2017-Oct-15 12:00N 36°05' W 005°23'0 0.5
2017-Oct-15 11:17N 36°05' W 005°22'1 2.0
2017-Oct-15 10:43N 36°04' W 005°22'312.1
2017-Oct-15 10:30N 36°02' W 005°24'714.2
2017-Oct-15 10:00N 35°57' W 005°31'3415.0
2017-Oct-15 07:46N 35°54' W 006°12'414.8
2017-Oct-15 07:31N 35°55' W 006°17'10313.7
2017-Oct-15 00:00N 36°06' W 008°24'3219.0 100 / 181022.4 2.2 23.018.321.0
2017-Oct-14 22:17N 36°16' W 009°02'415.4
2017-Oct-14 22:00N 36°16' W 009°08'815.9
2017-Oct-14 21:30N 36°18' W 009°17'815.3
2017-Oct-14 21:00N 36°19' W 009°27'815.7
2017-Oct-14 20:30N 36°20' W 009°36'815.6
2017-Oct-14 20:00N 36°22' W 009°46'815.2
2017-Oct-14 19:30N 36°23' W 009°55'815.4
2017-Oct-14 19:00N 36°25' W 010°04'815.6
2017-Oct-14 18:30N 36°26' W 010°14'815.4
2017-Oct-14 18:00N 36°28' W 010°23'815.7
2017-Oct-14 17:30N 36°29' W 010°33'815.5
2017-Oct-14 17:00N 36°31' W 010°42'815.3
2017-Oct-14 16:30N 36°33' W 010°52'815.3
2017-Oct-14 16:00N 36°34' W 011°01'815.2
2017-Oct-14 15:30N 36°36' W 011°10'815.7
2017-Oct-14 15:00N 36°37' W 011°20'815.5
2017-Oct-14 14:30N 36°39' W 011°29'815.5
2017-Oct-14 14:00N 36°40' W 011°39'815.4
2017-Oct-14 13:30N 36°42' W 011°48'815.1
2017-Oct-14 13:00N 36°43' W 011°57'815.4
2017-Oct-14 12:30N 36°44' W 012°07'815.2
2017-Oct-14 12:00N 36°46' W 012°16'5347.2
2017-Oct-14 12:00N 36°42' W 012°12'1224.6 150 / 131022.4 2.2 24.019.420.0
2017-Oct-14 11:30N 36°47' W 012°26'815.2
2017-Oct-14 11:00N 36°48' W 012°35'715.2
2017-Oct-14 10:30N 36°50' W 012°44'815.6
2017-Oct-14 10:00N 36°51' W 012°54'815.5
2017-Oct-14 09:30N 36°52' W 013°03'815.4
2017-Oct-14 08:59N 36°54' W 013°13'715.2
2017-Oct-14 08:30N 36°55' W 013°22'1215.0
2017-Oct-14 07:42N 36°57' W 013°37'11514.9
2017-Oct-14 00:00N 37°12' W 016°00'32615.6 120 / 121022.4 5.4 22.018.926.0
2017-Oct-13 03:01N 37°48' W 022°49'011.6
2017-Oct-13 03:01N 37°48' W 022°49'1915.5
2017-Oct-13 01:48N 37°49' W 023°13'515.5
2017-Oct-13 01:30N 37°50' W 023°18'815.4
2017-Oct-13 01:01N 37°50' W 023°28'815.6
2017-Oct-13 00:30N 37°51' W 023°38'815.5
2017-Oct-13 00:00N 37°51' W 023°48'6643.1
2017-Oct-13 00:00N 37°48' W 023°42'1325.9 140 / 81022.4 5.4 23.019.926.0
2017-Oct-12 23:30N 37°52' W 023°58'815.4
2017-Oct-12 23:00N 37°52' W 024°07'815.3
2017-Oct-12 22:31N 37°52' W 024°17'815.2
2017-Oct-12 22:01N 37°53' W 024°26'815.6
2017-Oct-12 21:30N 37°53' W 024°36'815.6
2017-Oct-12 21:00N 37°54' W 024°46'815.6
2017-Oct-12 20:30N 37°54' W 024°56'815.6
2017-Oct-12 20:00N 37°55' W 025°06'815.8
2017-Oct-12 19:31N 37°56' W 025°16'815.8
2017-Oct-12 19:00N 37°57' W 025°26'815.4
2017-Oct-12 18:31N 37°58' W 025°35'815.2
2017-Oct-12 18:00N 37°59' W 025°45'815.1
2017-Oct-12 17:30N 38°02' W 025°54'714.9
2017-Oct-12 17:00N 38°05' W 026°02'815.2
2017-Oct-12 16:31N 38°09' W 026°11'714.8
2017-Oct-12 16:00N 38°13' W 026°19'815.1
2017-Oct-12 15:31N 38°16' W 026°27'815.2
2017-Oct-12 15:00N 38°20' W 026°36'815.1
2017-Oct-12 14:31N 38°24' W 026°44'815.3
2017-Oct-12 14:00N 38°27' W 026°53'714.9
2017-Oct-12 13:30N 38°31' W 027°01'714.8
2017-Oct-12 13:00N 38°33' W 027°10'815.2
2017-Oct-12 12:28N 38°35' W 027°20'816.6
2017-Oct-12 12:00N 38°30' W 027°12'153220.7 170 / 211022.4 5.4
2017-Oct-12 11:59N 38°36' W 027°30'816.0
2017-Oct-12 11:28N 38°38' W 027°40'714.9
2017-Oct-12 10:59N 38°40' W 027°49'715.2
2017-Oct-12 10:30N 38°42' W 027°58'815.7
2017-Oct-12 10:00N 38°45' W 028°07'815.5
2017-Oct-12 09:30N 38°48' W 028°17'815.5
2017-Oct-12 08:59N 38°49' W 028°27'815.6
2017-Oct-12 08:29N 38°50' W 028°37'815.8
2017-Oct-12 08:00N 38°50' W 028°46'815.9
2017-Oct-12 07:30N 38°51' W 028°57'815.2
2017-Oct-12 07:00N 38°51' W 029°06'815.8
2017-Oct-12 06:30N 38°52' W 029°16'815.9
2017-Oct-12 06:00N 38°52' W 029°27'816.1
2017-Oct-12 05:30N 38°53' W 029°37'916.1
2017-Oct-12 04:58N 38°53' W 029°48'715.6
2017-Oct-12 04:29N 38°54' W 029°58'815.8
2017-Oct-12 03:58N 38°54' W 030°08'915.8
2017-Oct-12 03:24N 38°54' W 030°20'615.6
2017-Oct-12 03:00N 38°55' W 030°28'915.7
2017-Oct-12 02:27N 38°55' W 030°39'1015.8
2017-Oct-12 01:50N 38°55' W 030°51'615.9
2017-Oct-12 01:28N 38°56' W 030°59'915.5
2017-Oct-12 00:54N 38°56' W 031°10'615.7
2017-Oct-12 00:30N 38°56' W 031°18'815.9
2017-Oct-12 00:00N 38°57' W 031°28'8574.5
2017-Oct-12 00:00N 38°54' W 031°18'1732.4 200 / 201020.4 5.4 25.017.027.0
2017-Oct-11 23:29N 38°57' W 031°39'37215.8
2017-Oct-11 00:00N 38°48' W 039°36'36815.3 210 / 131022.4 5.4 25.017.028.0
2017-Oct-10 00:00N 38°12' W 047°24'20116.7 220 / 41027.4 5.4 25.017.028.0
2017-Oct-09 12:00N 37°42' W 051°36'19115.9 060 / 41028.4 5.4 24.021.028.0
2017-Oct-09 00:00N 37°00' W 055°30'38215.9 130 / 71028.4 5.4 25.018.827.0
2017-Oct-08 00:00N 35°18' W 063°06'16016.0 130 / 151026.4 5.4 25.018.828.0
2017-Oct-07 14:00N 34°30' W 066°12'   130 / 181023.4 5.4 26.019.928.0
Track history (hours):
 
Tides and Currents Weather Stations Pressure Air Temp Water Temp Dewpoint Dewpoint Depression Visibility Wind Speed Wind Dir Waves Ship Positions

Niledutch Osprey

Last reported at 2017-Oct-16 01:27 UTC. Time now 2017-Oct-17 13:05 UTC.
Position N 36°01' W 005°09'.

Length 182 m; draft 10.2 m.

Type: Ship (hazmat cat A). MMSI: 538005042.

Date/timePositionNaut miles runAvg speedWind from/ knotsBaromVisibWave heightAir tempDewpointWater temp
2017-Oct-16 01:27N 36°01' W 005°09'716.3
2017-Oct-16 01:00N 36°01' W 005°18'714.5
2017-Oct-16 00:31N 36°06' W 005°25'2 3.0
2017-Oct-15 23:59N 36°08' W 005°25'0 0.0
2017-Oct-15 23:29N 36°08' W 005°25'0 0.0
2017-Oct-15 22:56N 36°08' W 005°25'0 0.0
2017-Oct-15 22:28N 36°08' W 005°25'0 0.0
2017-Oct-15 21:58N 36°08' W 005°25'0 0.0
2017-Oct-15 21:28N 36°08' W 005°25'0 0.0
2017-Oct-15 21:00N 36°08' W 005°25'0 0.0
2017-Oct-15 20:30N 36°08' W 005°25'0 0.0
2017-Oct-15 19:59N 36°08' W 005°25'0 0.0
2017-Oct-15 19:30N 36°08' W 005°25'0 0.0
2017-Oct-15 17:55N 36°08' W 005°25'0 0.0
2017-Oct-15 17:29N 36°08' W 005°25'0 0.0
2017-Oct-15 16:09N 36°08' W 005°25'0 0.1
2017-Oct-15 16:00N 36°08' W 005°25'0 0.0
2017-Oct-15 15:30N 36°08' W 005°25'0 0.0
2017-Oct-15 14:58N 36°08' W 005°25'0 0.0
2017-Oct-15 13:57N 36°08' W 005°25'0 0.0
2017-Oct-15 13:27N 36°08' W 005°25'0 0.4
2017-Oct-15 13:00N 36°08' W 005°25'4 4.1
2017-Oct-15 12:05N 36°05' W 005°23'0 0.6
2017-Oct-15 12:00N 36°05' W 005°23'0 0.5
2017-Oct-15 11:17N 36°05' W 005°22'1 2.0
2017-Oct-15 10:43N 36°04' W 005°22'312.1
2017-Oct-15 10:30N 36°02' W 005°24'714.2
2017-Oct-15 10:00N 35°57' W 005°31'3415.0
2017-Oct-15 07:46N 35°54' W 006°12'414.8
2017-Oct-15 07:31N 35°55' W 006°17'10313.7
2017-Oct-15 00:00N 36°06' W 008°24'3219.0 100 / 181022.4 2.2 23.018.321.0
2017-Oct-14 22:17N 36°16' W 009°02'415.4
2017-Oct-14 22:00N 36°16' W 009°08'815.9
2017-Oct-14 21:30N 36°18' W 009°17'815.3
2017-Oct-14 21:00N 36°19' W 009°27'815.7
2017-Oct-14 20:30N 36°20' W 009°36'815.6
2017-Oct-14 20:00N 36°22' W 009°46'815.2
2017-Oct-14 19:30N 36°23' W 009°55'815.4
2017-Oct-14 19:00N 36°25' W 010°04'815.6
2017-Oct-14 18:30N 36°26' W 010°14'815.4
2017-Oct-14 18:00N 36°28' W 010°23'815.7
2017-Oct-14 17:30N 36°29' W 010°33'815.5
2017-Oct-14 17:00N 36°31' W 010°42'815.3
2017-Oct-14 16:30N 36°33' W 010°52'815.3
2017-Oct-14 16:00N 36°34' W 011°01'815.2
2017-Oct-14 15:30N 36°36' W 011°10'815.7
2017-Oct-14 15:00N 36°37' W 011°20'815.5
2017-Oct-14 14:30N 36°39' W 011°29'815.5
2017-Oct-14 14:00N 36°40' W 011°39'815.4
2017-Oct-14 13:30N 36°42' W 011°48'815.1
2017-Oct-14 13:00N 36°43' W 011°57'815.4
2017-Oct-14 12:30N 36°44' W 012°07'815.2
2017-Oct-14 12:00N 36°46' W 012°16'5347.2
2017-Oct-14 12:00N 36°42' W 012°12'1224.6 150 / 131022.4 2.2 24.019.420.0
2017-Oct-14 11:30N 36°47' W 012°26'815.2
2017-Oct-14 11:00N 36°48' W 012°35'715.2
2017-Oct-14 10:30N 36°50' W 012°44'815.6
2017-Oct-14 10:00N 36°51' W 012°54'815.5
2017-Oct-14 09:30N 36°52' W 013°03'815.4
2017-Oct-14 08:59N 36°54' W 013°13'715.2
2017-Oct-14 08:30N 36°55' W 013°22'1215.0
2017-Oct-14 07:42N 36°57' W 013°37'11514.9
2017-Oct-14 00:00N 37°12' W 016°00'32615.6 120 / 121022.4 5.4 22.018.926.0
2017-Oct-13 03:01N 37°48' W 022°49'011.6
2017-Oct-13 03:01N 37°48' W 022°49'1915.5
2017-Oct-13 01:48N 37°49' W 023°13'515.5
2017-Oct-13 01:30N 37°50' W 023°18'815.4
2017-Oct-13 01:01N 37°50' W 023°28'815.6
2017-Oct-13 00:30N 37°51' W 023°38'815.5
2017-Oct-13 00:00N 37°51' W 023°48'6643.1
2017-Oct-13 00:00N 37°48' W 023°42'1325.9 140 / 81022.4 5.4 23.019.926.0
2017-Oct-12 23:30N 37°52' W 023°58'815.4
2017-Oct-12 23:00N 37°52' W 024°07'815.3
2017-Oct-12 22:31N 37°52' W 024°17'815.2
2017-Oct-12 22:01N 37°53' W 024°26'815.6
2017-Oct-12 21:30N 37°53' W 024°36'815.6
2017-Oct-12 21:00N 37°54' W 024°46'815.6
2017-Oct-12 20:30N 37°54' W 024°56'815.6
2017-Oct-12 20:00N 37°55' W 025°06'815.8
2017-Oct-12 19:31N 37°56' W 025°16'815.8
2017-Oct-12 19:00N 37°57' W 025°26'815.4
2017-Oct-12 18:31N 37°58' W 025°35'815.2
2017-Oct-12 18:00N 37°59' W 025°45'815.1
2017-Oct-12 17:30N 38°02' W 025°54'714.9
2017-Oct-12 17:00N 38°05' W 026°02'815.2
2017-Oct-12 16:31N 38°09' W 026°11'714.8
2017-Oct-12 16:00N 38°13' W 026°19'815.1
2017-Oct-12 15:31N 38°16' W 026°27'815.2
2017-Oct-12 15:00N 38°20' W 026°36'815.1
2017-Oct-12 14:31N 38°24' W 026°44'815.3
2017-Oct-12 14:00N 38°27' W 026°53'714.9
2017-Oct-12 13:30N 38°31' W 027°01'714.8
2017-Oct-12 13:00N 38°33' W 027°10'815.2
2017-Oct-12 12:28N 38°35' W 027°20'816.6
2017-Oct-12 12:00N 38°30' W 027°12'153220.7 170 / 211022.4 5.4
2017-Oct-12 11:59N 38°36' W 027°30'816.0
2017-Oct-12 11:28N 38°38' W 027°40'714.9
2017-Oct-12 10:59N 38°40' W 027°49'715.2
2017-Oct-12 10:30N 38°42' W 027°58'815.7
2017-Oct-12 10:00N 38°45' W 028°07'815.5
2017-Oct-12 09:30N 38°48' W 028°17'815.5
2017-Oct-12 08:59N 38°49' W 028°27'815.6
2017-Oct-12 08:29N 38°50' W 028°37'815.8
2017-Oct-12 08:00N 38°50' W 028°46'815.9
2017-Oct-12 07:30N 38°51' W 028°57'815.2
2017-Oct-12 07:00N 38°51' W 029°06'815.8
2017-Oct-12 06:30N 38°52' W 029°16'815.9
2017-Oct-12 06:00N 38°52' W 029°27'816.1
2017-Oct-12 05:30N 38°53' W 029°37'916.1
2017-Oct-12 04:58N 38°53' W 029°48'715.6
2017-Oct-12 04:29N 38°54' W 029°58'815.8
2017-Oct-12 03:58N 38°54' W 030°08'915.8
2017-Oct-12 03:24N 38°54' W 030°20'615.6
2017-Oct-12 03:00N 38°55' W 030°28'915.7
2017-Oct-12 02:27N 38°55' W 030°39'1015.8
2017-Oct-12 01:50N 38°55' W 030°51'615.9
2017-Oct-12 01:28N 38°56' W 030°59'915.5
2017-Oct-12 00:54N 38°56' W 031°10'615.7
2017-Oct-12 00:30N 38°56' W 031°18'815.9
2017-Oct-12 00:00N 38°57' W 031°28'8574.5
2017-Oct-12 00:00N 38°54' W 031°18'1732.4 200 / 201020.4 5.4 25.017.027.0
2017-Oct-11 23:29N 38°57' W 031°39'37215.8
2017-Oct-11 00:00N 38°48' W 039°36'36815.3 210 / 131022.4 5.4 25.017.028.0
2017-Oct-10 00:00N 38°12' W 047°24'20116.7 220 / 41027.4 5.4 25.017.028.0
2017-Oct-09 12:00N 37°42' W 051°36'19115.9 060 / 41028.4 5.4 24.021.028.0
2017-Oct-09 00:00N 37°00' W 055°30'38215.9 130 / 71028.4 5.4 25.018.827.0
2017-Oct-08 00:00N 35°18' W 063°06'16016.0 130 / 151026.4 5.4 25.018.828.0
2017-Oct-07 14:00N 34°30' W 066°12'   130 / 181023.4 5.4 26.019.928.0

Dump ship's entire track history